Welcome to our new website - Welkom op onze vernieuwde website - Bienvenue sur notre nouveau site web - Willkommen auf unserer neuen Website
Check our progress frequently. Prüfen Sie unsere Fortschritte regelmäßig. Consultez notre progression fréquemment. Komt u straks nog eens

KNMI Weersverwachting is alleen beschikbaar in de Nederlandse Taal, Ongeacht welke taal u kiest.
KNMI weather forecast is only available in the Dutch language, No matter what language you choose.







Meteo Oudkarspel - De weer weet site voor Langedijk

Blijf op de hoogte van het actuele weer, Keep up to date with the current weather.



Lokaal brandgevaar
CBI


Regionaal natuur brand risico: Meer informatie


Mijn Webcam 1 Meer informatie My webcam


Mijn Webcam 2 Meer informatie My webcam 2


Onweer radar Meer informatie blitzortung!


Regen radar Meer informatie rain snow radar


Bezoek onze andere website:

Template - Davis WeatherLink Version
Vantage Veu

Template - Meteotemplate

Template - HomeWeatherStation

PDøROK Multimedia

Meteo Broek Op Langedijk

Lief LangedijkLief Langedijk

Dé fietsenmaker van Langedijk en omstrekenAxel Noort dé fietsenmaker

Ijsvereniging Volharding

Meteo Tuitjenhorn

Meteo Delfzijl

Meteo SauwerdMeteo Sauwerd

WeerstationMeteo Sauwerd

Weerstation Noordbergum

Weerstation ParkstadWeerstation Parkstad

Norderney



Het weer levert geen direct gevaar op.    Er zijn geen waarschuwingen afgegeven.

METAR rapporten vliegvelden

   
EHKD - De Kooy (navy), Netherlands
Afstand tot: N 23 km
Gewijzigd: 13-Dec-2019 12:11
Bewolking  
Bewolking  
   Wind: ZZO 9.3 km/h
Wind: ZZO 9.3 km/h
Temperatuur: 4°C
Voelt als: 2°C
Dauwpunt: 3°C
Vochtigheid: 93%
Barometer: 975 hPa
Bewolking: Bewolking
Zicht: meer dan 10 km
Bewolking: Grotendeels bewolkt 700 ft,
Bewolking 800 ft
EHKD 131111Z AUTO 15005KT 110V180 9999 BKN007 OVC008 04/03 Q0975 GRN 14010KT 9999 SCT006 BKN007
EHAM - Amsterdam/Schiph, Netherlands
Afstand tot: Z 44 km
Gewijzigd: 13-Dec-2019 11:55
Wat regen mogelijk, Motregen, Grotendeels bewolkt  
Wat regen mogelijk, Motregen, Grotendeels bewolkt  
   Wind: NO 7.4 km/h
Wind: NO 7.4 km/h
Temperatuur: 4°C
Voelt als: 2°C
Dauwpunt: 3°C
Vochtigheid: 93%
Barometer: 975 hPa
Bewolking: Grotendeels bewolkt
Zicht: meer dan 10 km
Bewolking: Licht bewolkt 600 ft,
Grotendeels bewolkt 800 ft,
Grotendeels bewolkt 2100 ft
EHAM 131055Z 05004KT 280V090 9999 -RADZ FEW006 BKN008 BKN021 04/03 Q0975 NOSIG
EHQE - Hoorn-A Sea, Netherlands
Afstand tot: WNW 50 km
Gewijzigd: 13-Dec-2019 11:55
Bewolking  
Bewolking  
   Wind: ZO 14.8 km/h
Wind: ZO 14.8 km/h
Temperatuur: 6°C
Voelt als: 3°C
Dauwpunt: 4°C
Vochtigheid: 87%
Barometer: 975 hPa
Bewolking: Bewolking
Zicht: meer dan 10 km
Bewolking: Bewolking 600 ft
EHQE 131055Z AUTO 13008KT 9999 OVC006 06/04 Q0975
EHVL - Vlieland Island, Netherlands
Afstand tot: N 58 km
Gewijzigd: 13-Dec-2019 11:55
Bewolking  
Bewolking  
   Wind: ZZO 18.5 km/h
Wind: ZZO 18.5 km/h
Temperatuur: 4°C
Voelt als: 0°C
Dauwpunt: 3°C
Vochtigheid: 93%
Barometer: 975 hPa
Bewolking: Bewolking
Zicht: meer dan 10 km
Bewolking: Grotendeels bewolkt 700 ft,
Bewolking 800 ft
EHVL 131055Z AUTO 16010KT 9999 BKN007 OVC008 04/03 Q0975 GRN
EHLW - Leeuwarden Rnlaf, Netherlands
Afstand tot: NO 85 km
Gewijzigd: 13-Dec-2019 11:55
Grotendeels bewolkt  
Grotendeels bewolkt  
   Wind: ZO 14.8 km/h
Wind: ZO 14.8 km/h
Temperatuur: 4°C
Voelt als: 1°C
Dauwpunt: 2°C
Vochtigheid: 87%
Barometer: 975 hPa
Bewolking: Grotendeels bewolkt
Zicht: meer dan 10 km
Bewolking: Gedeeltelijk bewolkt 1600 ft,
Gedeeltelijk bewolkt 2300 ft,
Grotendeels bewolkt 2600 ft
EHLW 131055Z AUTO 14008KT 9999 SCT016 SCT023 BKN026 04/02 Q0975 WHT 13009KT 9999 FEW009 BKN015
EHRD - Rotterdam Airpor, Netherlands
Afstand tot: ZZW 88 km
Gewijzigd: 13-Dec-2019 11:55
Motregen, Regen, Grotendeels bewolkt  
Motregen, Regen, Grotendeels bewolkt  
   Wind: NNO 5.6 km/h
Wind: NNO 5.6 km/h
Temperatuur: 4°C
Voelt als: 3°C
Dauwpunt: 4°C
Vochtigheid: 100%
Barometer: 975 hPa
Bewolking: Grotendeels bewolkt
Zicht: 9 km
Bewolking: Grotendeels bewolkt 500 ft,
Grotendeels bewolkt 600 ft,
Licht bewolkt 1500 ft
EHRD 131055Z AUTO 02003KT 360V060 9000 DZRA BKN005 BKN006 FEW015CB 04/04 Q0975 TEMPO 6000
EHKV - K14-Fa-1c Sea, Netherlands
Afstand tot: NW 100 km
Gewijzigd: 13-Dec-2019 11:55
Wat regen mogelijk, Motregen, Grotendeels bewolkt  
Wat regen mogelijk, Motregen, Grotendeels bewolkt  
   Wind: Zuiden 18.5 km/h
Wind: Zuiden 18.5 km/h
Temperatuur: 8°C
Voelt als: 5°C
Dauwpunt: 7°C
Vochtigheid: 93%
Barometer: 975 hPa
Bewolking: Grotendeels bewolkt
Zicht: meer dan 10 km
Bewolking: Licht bewolkt 500 ft,
Gedeeltelijk bewolkt 1600 ft,
Grotendeels bewolkt 2000 ft
EHKV 131055Z AUTO 18010KT 9999 -RADZ FEW005 SCT016 BKN020 08/07 Q0975
EHMG - L9-Ff-1 Sea, Netherlands
Afstand tot: N 101 km
Gewijzigd: 13-Dec-2019 11:55
Bewolking  
Bewolking  
   Wind: varieert 24.1 km/h
Wind: varieert 24.1 km/h
Temperatuur: 5°C
Voelt als: 1°C
Dauwpunt: 3°C
Vochtigheid: 87%
Barometer: 976 hPa
Bewolking: Bewolking
Zicht: meer dan 10 km
Bewolking: Grotendeels bewolkt 600 ft,
Bewolking 700 ft
EHMG 131055Z AUTO VRB13KT 9999 BKN006 OVC007 05/03 Q0976
EHDL - Deelen Rnlafb, Netherlands
Afstand tot: ZO 102 km
Gewijzigd: 13-Dec-2019 11:55
Wat regen mogelijk, Bewolking  
Wat regen mogelijk, Bewolking  
   Wind: Oosten 7.4 km/h
Wind: Oosten 7.4 km/h
Temperatuur: 4°C
Voelt als: 2°C
Dauwpunt: 3°C
Vochtigheid: 93%
Barometer: 974 hPa
Bewolking: Bewolking
Zicht: 6 km
Bewolking: Gedeeltelijk bewolkt 500 ft,
Grotendeels bewolkt 600 ft,
Bewolking 700 ft
EHDL 131055Z AUTO 08004KT 010V140 6000 -RA SCT005 BKN006 OVC007 04/03 Q0974 YLO
EHPG - P11-B Sea, Netherlands
Afstand tot: WZW 106 km
Gewijzigd: 13-Dec-2019 11:55
Wat regen mogelijk, Grotendeels bewolkt  
Wat regen mogelijk, Grotendeels bewolkt  
   Wind: varieert Kalm
Wind: varieert Kalm
Temperatuur: 8°C
Dauwpunt: 6°C
Vochtigheid: 87%
Barometer: 976 hPa
Bewolking: Grotendeels bewolkt
Zicht: meer dan 10 km
Bewolking: Licht bewolkt,
Gedeeltelijk bewolkt 500 ft,
Grotendeels bewolkt 1000 ft
EHPG 131055Z AUTO ///07G17KT 9999 -RA FEW000 SCT005 BKN010 08/06 Q0976 RERAUPRA
EHMA - Awg-1 Sea, Netherlands
Afstand tot: NO 116 km
Gewijzigd: 13-Dec-2019 11:55
Bewolking  
Bewolking  
   Wind: ZO 31.5 km/h
Wind: ZO 31.5 km/h
Temperatuur: 3°C
Voelt als: -3°C
Dauwpunt: 1°C
Vochtigheid: 87%
Barometer: 976 hPa
Bewolking: Bewolking
Zicht: meer dan 10 km
Bewolking: Bewolking 1400 ft
EHMA 131055Z AUTO 13017KT 9999 OVC014 03/01 Q0976
EHSC - Goeree Le Sea, Netherlands
Afstand tot: ZW 116 km
Gewijzigd: 13-Dec-2019 11:55
Wat regen mogelijk  
Wat regen mogelijk  
   Wind: NNW 11.1 km/h
Wind: NNW 11.1 km/h
Temperatuur: 6°C
Voelt als: 4°C
Dauwpunt: 6°C
Vochtigheid: 100%
Barometer: 976 hPa
Zicht: 5 km
EHSC 131055Z AUTO 34006KT 5000 -RA ///////// 06/06 Q0976 W08/H6
EHJR - K13-A Sea, Netherlands
Afstand tot: WNW 120 km
Gewijzigd: 13-Dec-2019 11:55
  
  
   Wind: WNW 31.5 km/h
Wind: WNW 31.5 km/h
Temperatuur: 8°C
Voelt als: 4°C
Dauwpunt: 5°C
Vochtigheid: 82%
Barometer: 975 hPa
EHJR 131055Z AUTO 29017KT //// // ///////// 08/05 Q0975 RE// W10/H12
EHGG - Groningen/Eelde, Netherlands
Afstand tot: ONO 126 km
Gewijzigd: 13-Dec-2019 11:55
Bewolking  
Bewolking  
   Wind: OZO 11.1 km/h
Wind: OZO 11.1 km/h
Temperatuur: 3°C
Voelt als: 0°C
Dauwpunt: 1°C
Vochtigheid: 87%
Barometer: 976 hPa
Bewolking: Bewolking
Zicht: meer dan 10 km
Bewolking: Bewolking 1700 ft
EHGG 131055Z AUTO 12006KT 080V150 9999 OVC017 03/01 Q0976 NOSIG
EHGR - Gilze-Rijen Rnla, Netherlands
Afstand tot: Z 128 km
Gewijzigd: 13-Dec-2019 12:08
Nevel, Bewolking  
Nevel, Bewolking  
   Wind: NNW 11.1 km/h
Wind: NNW 11.1 km/h
Temperatuur: 5°C
Voelt als: 2°C
Dauwpunt: 5°C
Vochtigheid: 100%
Barometer: 974 hPa
Bewolking: Bewolking
Zicht: 5 km
Bewolking: Bewolking 200 ft
EHGR 131108Z AUTO 34006KT 280V020 5000 BR OVC002 05/05 Q0974 AMB VRB03KT 4500 BR BKN005 TEMPO 1500 DZ SCT002 OVC003
EHSA - Euro Platform, Netherlands
Afstand tot: ZW 130 km
Gewijzigd: 13-Dec-2019 11:55
  
  
   Wind: NW 50 km/h
Wind: NW 50 km/h
Temperatuur: 9°C
Voelt als: 4°C
Dauwpunt: 6°C
Vochtigheid: 82%
Barometer: 976 hPa
Zicht: meer dan 10 km
EHSA 131055Z AUTO 31027KT 9999 ///////// 09/06 Q0976 REDZ W08/H7
EHVK - Volkel Rnlafb, Netherlands
Afstand tot: ZZO 135 km
Gewijzigd: 13-Dec-2019 11:55
Nevel, Bewolking  
Nevel, Bewolking  
   Wind: OZO 7.4 km/h
Wind: OZO 7.4 km/h
Temperatuur: 4°C
Voelt als: 2°C
Dauwpunt: 4°C
Vochtigheid: 100%
Barometer: 974 hPa
Bewolking: Bewolking
Zicht: 2 km
Bewolking: Grotendeels bewolkt 200 ft,
Bewolking 300 ft
EHVK 131055Z AUTO 11004KT 090V150 2400 R06L/2400D BR BKN002 OVC003 04/04 Q0974 AMB 11006KT 9000 SCT004 BKN010 BKN015 TEMPO 2000 DZRA SCT003 BKN004 OVC010
EHWO - Woensdrecht Rnla, Netherlands
Afstand tot: ZZW 144 km
Gewijzigd: 13-Dec-2019 11:55
Lichte buien, Regen, Bewolking  
Lichte buien, Regen, Bewolking  
   Wind: NNW 11.1 km/h
Wind: NNW 11.1 km/h
Temperatuur: 6°C
Voelt als: 4°C
Dauwpunt: 5°C
Vochtigheid: 93%
Barometer: 975 hPa
Bewolking: Bewolking
Zicht: 6 km
Bewolking: Gedeeltelijk bewolkt 300 ft,
Grotendeels bewolkt 400 ft,
Bewolking 500 ft
EHWO 131055Z AUTO 33006KT 250V020 6000 -SHRA SCT003 BKN004 OVC005 06/05 Q0975 REDZ YLO
EHEH - Eindhoven Rnlafb, Netherlands
Afstand tot: ZZO 146 km
Gewijzigd: 13-Dec-2019 12:06
Grotendeels bewolkt  
Grotendeels bewolkt  
   Wind: ZW 9.3 km/h
Wind: ZW 9.3 km/h
Temperatuur: 7°C
Voelt als: 5°C
Dauwpunt: 6°C
Vochtigheid: 93%
Barometer: 974 hPa
Bewolking: Grotendeels bewolkt
Zicht: meer dan 10 km
Bewolking: Licht bewolkt 500 ft,
Grotendeels bewolkt 700 ft,
Grotendeels bewolkt 800 ft
EHEH 131106Z AUTO 23005KT 9999 FEW005 BKN007 BKN008 07/06 Q0974 GRN 22003KT 9999 SCT008 BKN013 BKN018 TEMPO 2500 DZRA SCT004 BKN005 BKN008
EDLV - Niederrhein, Germany
Afstand tot: ZO 154 km
Gewijzigd: 13-Dec-2019 11:50
Wat regen mogelijk, Grotendeels bewolkt  
Wat regen mogelijk, Grotendeels bewolkt  
   Wind: ZZO 13 km/h
Wind: ZZO 13 km/h
Temperatuur: 4°C
Voelt als: 1°C
Dauwpunt: 3°C
Vochtigheid: 93%
Barometer: 974 hPa
Bewolking: Grotendeels bewolkt
Zicht: 6 km
Bewolking: Grotendeels bewolkt 500 ft
EDLV 131050Z 15007KT 6000 -RA BKN005 04/03 Q0974
 

Script ontwikkeld door  Saratoga-weather.org Aangepast voor de template door  Weerstation Leuven

U vindt ons ook hier:

Vereniging voor Weerkunde en Klimatologie

Het Weer Aktueel

WOW Nederland KNMI

UK Metoffice

European Weather Network

WeatherCloud

Weather Underground

Benelux Weer Netwerk

AWEKAS

WeatherlinkIP

Citizen Weather Observer Program (CWOP)

HAMweather, WeatherForYou, PWS Weather

        

Apparatuur in gebruik:

Weerstation
Davis - Vantage Veu

Weerprogramma
Meteobridge

Weercomputer
Carambola2 - MeteroBridge Pro (black)

Webleverancier
1Eurohosting

Hardwareleverancier 1
Uurwerk- & Meteospecialist Vlasma

Hardwareleverancier 2
Weerhuisje

Davis - Vantage Veu

Meteobridge

Carambola2 - MeteroBridge Pro (black)

1Eurohosting

Uurwerk- & Meteospecialist Vlasma

Weerhuisje


Alles over het weer rondom het weerstation van Meteo Oudkarspel, vind je hier. Dus alles onder 1 dak.

Everything about the weather around the Meteo Oudkarspel weather station can be found here. So everything under one roof..

Dus kom regelmatig terug, So come back regularly.


# #---------------------- version history # 3.20 2015-10-12 release 2.8b version